Parkston, South Dakota
Current Conditions -  °F | °C
As of 2:53 AM on Saturday 25 Oct 2014 (Local Time) from KMHE Reporting Station
Clear Clear  
Wind Chill: 51°   Ceiling: Unl
Heat Index: 51°   Visibility: 7mi
Dew Point: 39°   Wind: 6mph
Humidity: 63%   Direction: 290°WNW
Pressure: 30.08"   Gusts: NA
Location:  43.4°N, 97.98°W
Report Text: KMHE 250753Z AUTO 29005KT 7SM CLR 11/04 A3008 RMK AO2 SLP183 T01060039 $
Loading
Personal Weather Stations






























Interactive Weather Map
Tropical Storm Tracking
New forecast layout! Learn more

10-Day Weather Forecast

Advertisements
Track Severe Weather on mobile